Time;durP1;ratioP1;P1;durP2;ratioP2;P2;SDS_P1;SDS_P2;PMS_P1;PMS_P2;Temp;Humidity;BMP_temperature;BMP_pressure;BME280_temperature;BME280_humidity;BME280_pressure;Samples;Min_cycle;Max_cycle;Signal;HPM_P1;HPM_P2
2021/04/03 00:01:07;;;;;;;3.85;1.35;;;18.10;53.80;;;;;;5073631;28;20036;-69
2021/04/03 00:03:33;;;;;;;5.03;1.40;;;18.10;54.00;;;;;;5089854;28;20485;-69
2021/04/03 00:05:59;;;;;;;6.60;1.58;;;18.10;53.90;;;;;;5090492;28;20027;-69
2021/04/03 00:08:25;;;;;;;4.43;1.60;;;18.10;54.00;;;;;;5079020;28;20029;-69
2021/04/03 00:10:57;;;;;;;4.65;1.42;;;18.00;54.00;;;;;;5071996;28;20135;-69
2021/04/03 00:13:26;;;;;;;4.07;1.38;;;18.00;54.00;;;;;;5081913;28;20043;-70
2021/04/03 00:15:52;;;;;;;6.43;1.90;;;18.00;54.00;;;;;;5080826;28;20020;-68
2021/04/03 00:18:18;;;;;;;6.97;2.22;;;18.00;54.00;;;;;;5073800;28;20393;-69
2021/04/03 00:20:46;;;;;;;4.38;1.50;;;18.00;54.10;;;;;;5073644;28;20385;-71
2021/04/03 00:23:12;;;;;;;5.47;1.45;;;18.00;54.10;;;;;;5086426;28;20540;-69
2021/04/03 00:25:38;;;;;;;5.63;1.60;;;18.00;54.10;;;;;;5087438;28;20099;-72
2021/04/03 00:28:03;;;;;;;5.13;1.45;;;18.00;54.10;;;;;;5090431;28;20116;-68
2021/04/03 00:30:29;;;;;;;5.72;1.52;;;17.90;54.20;;;;;;5090970;28;20024;-69
2021/04/03 00:33:01;;;;;;;4.95;1.50;;;17.90;54.20;;;;;;5071187;28;20035;-69
2021/04/03 00:35:31;;;;;;;6.07;1.50;;;17.90;54.30;;;;;;5070369;28;20470;-70
2021/04/03 00:37:59;;;;;;;3.43;1.20;;;17.90;54.20;;;;;;5071580;28;20028;-69
2021/04/03 00:40:34;;;;;;;5.35;1.50;;;17.90;54.20;;;;;;5080384;28;20028;-69
2021/04/03 00:43:02;;;;;;;4.97;1.55;;;17.90;54.20;;;;;;5091871;28;20031;-69
2021/04/03 00:45:28;;;;;;;5.25;1.50;;;17.90;54.30;;;;;;5091784;28;20055;-69
2021/04/03 00:47:54;;;;;;;6.43;1.48;;;17.90;54.40;;;;;;5090231;28;20020;-74
2021/04/03 00:50:33;;;;;;;6.93;1.70;;;17.90;54.50;;;;;;5090680;28;20028;-69
2021/04/03 00:52:59;;;;;;;6.15;1.73;;;17.80;54.40;;;;;;5091648;28;20067;-71
2021/04/03 00:55:24;;;;;;;6.47;1.70;;;17.80;54.40;;;;;;5080157;28;20104;-69
2021/04/03 00:57:51;;;;;;;6.80;1.70;;;17.80;54.50;;;;;;5081923;28;20032;-68
2021/04/03 01:00:18;;;;;;;5.32;1.13;;;17.80;54.60;;;;;;5089349;28;20535;-69
2021/04/03 01:02:44;;;;;;;5.68;1.30;;;17.70;54.70;;;;;;5090371;28;20040;-72
2021/04/03 01:05:12;;;;;;;5.28;1.55;;;17.70;54.60;;;;;;5091525;28;20020;-69
2021/04/03 01:07:38;;;;;;;3.60;1.20;;;17.80;54.70;;;;;;5084016;28;20069;-70
2021/04/03 01:10:06;;;;;;;5.60;1.80;;;17.70;54.70;;;;;;5070963;28;20052;-71
2021/04/03 01:13:01;;;;;;;5.50;1.65;;;17.70;54.70;;;;;;5069944;28;20025;-68
2021/04/03 01:15:42;;;;;;;5.75;1.80;;;17.60;54.80;;;;;;5078640;28;20020;-68
2021/04/03 01:18:33;;;;;;;4.22;1.20;;;17.60;54.90;;;;;;5091248;28;20477;-68
2021/04/03 01:21:22;;;;;;;3.92;1.10;;;17.60;54.80;;;;;;5086759;28;20456;-70
2021/04/03 01:24:25;;;;;;;4.00;1.05;;;17.60;54.90;;;;;;5071277;28;20058;-65
2021/04/03 01:27:20;;;;;;;6.13;1.30;;;17.60;55.00;;;;;;5073824;28;20029;-71
2021/04/03 01:29:47;;;;;;;3.70;1.10;;;17.60;55.00;;;;;;5075684;28;20367;-70
2021/04/03 01:32:16;;;;;;;3.40;1.50;;;17.60;55.00;;;;;;5072019;28;20020;-68
2021/04/03 01:34:45;;;;;;;5.90;1.50;;;17.60;55.00;;;;;;5071247;28;20036;-69
2021/04/03 01:37:17;;;;;;;4.18;1.20;;;17.60;55.00;;;;;;5092411;28;20032;-69
2021/04/03 01:39:45;;;;;;;3.42;1.27;;;17.50;55.10;;;;;;5093086;28;20223;-69
2021/04/03 01:42:14;;;;;;;4.78;1.48;;;17.50;55.20;;;;;;5094695;28;20020;-69
2021/04/03 01:44:47;;;;;;;3.92;1.15;;;17.50;55.10;;;;;;5095083;28;20034;-72
2021/04/03 01:47:14;;;;;;;5.15;1.25;;;17.50;55.20;;;;;;5093773;28;20066;-69
2021/04/03 01:49:43;;;;;;;4.45;1.48;;;17.50;55.10;;;;;;5081546;28;20504;-69
2021/04/03 01:52:09;;;;;;;4.57;1.40;;;17.50;55.10;;;;;;5090333;28;20032;-68
2021/04/03 01:54:35;;;;;;;5.05;1.38;;;17.40;55.20;;;;;;5087658;28;20070;-70
2021/04/03 01:57:01;;;;;;;5.13;1.40;;;17.40;55.20;;;;;;5086934;28;20035;-71
2021/04/03 01:59:27;;;;;;;6.05;1.70;;;17.40;55.20;;;;;;5074134;28;20020;-69
2021/04/03 02:01:55;;;;;;;5.38;1.38;;;17.40;55.30;;;;;;5074430;28;20021;-69
2021/04/03 02:04:21;;;;;;;5.22;1.20;;;17.40;55.30;;;;;;5079707;28;20505;-69
2021/04/03 02:06:47;;;;;;;4.25;1.10;;;17.40;55.30;;;;;;5082943;28;20512;-69
2021/04/03 02:09:15;;;;;;;5.13;1.38;;;17.40;55.30;;;;;;5088368;28;20055;-69
2021/04/03 02:11:47;;;;;;;4.68;1.30;;;17.40;55.40;;;;;;5090828;28;20031;-69
2021/04/03 02:14:14;;;;;;;4.55;1.42;;;17.40;55.50;;;;;;5092940;28;20020;-68
2021/04/03 02:16:41;;;;;;;4.20;1.30;;;17.30;55.50;;;;;;5093076;28;20032;-69
2021/04/03 02:19:09;;;;;;;4.47;1.17;;;17.30;55.40;;;;;;5093941;28;20065;-69
2021/04/03 02:21:35;;;;;;;6.72;1.40;;;17.30;55.50;;;;;;5094118;28;20020;-68
2021/04/03 02:24:04;;;;;;;5.43;1.33;;;17.30;55.40;;;;;;5094194;28;20085;-68
2021/04/03 02:26:35;;;;;;;4.40;1.25;;;17.30;55.50;;;;;;5093545;28;20107;-69
2021/04/03 02:29:03;;;;;;;4.93;1.50;;;17.30;55.50;;;;;;5093936;28;20022;-65
2021/04/03 02:31:30;;;;;;;3.65;1.40;;;17.30;55.60;;;;;;5094030;28;20026;-68
2021/04/03 02:33:55;;;;;;;4.38;1.15;;;17.30;55.60;;;;;;5092674;28;20090;-69
2021/04/03 02:36:21;;;;;;;4.80;1.30;;;17.30;55.60;;;;;;5092053;28;20119;-68
2021/04/03 02:38:49;;;;;;;4.32;1.27;;;17.20;55.50;;;;;;5093594;28;20095;-68
2021/04/03 02:41:22;;;;;;;4.55;1.20;;;17.30;55.60;;;;;;5093821;28;20016;-69
2021/04/03 02:44:09;;;;;;;5.80;1.55;;;17.20;55.60;;;;;;5093731;28;20063;-68
2021/04/03 02:47:10;;;;;;;5.50;1.40;;;17.20;55.60;;;;;;5081326;28;20497;-68
2021/04/03 02:49:41;;;;;;;4.82;1.20;;;17.20;55.60;;;;;;5073246;28;20056;-65
2021/04/03 02:52:12;;;;;;;5.45;1.35;;;17.20;55.70;;;;;;5073381;28;20016;-65
2021/04/03 02:54:40;;;;;;;4.80;1.63;;;17.20;55.70;;;;;;5072190;28;20111;-68
2021/04/03 02:57:08;;;;;;;4.90;1.20;;;17.20;55.60;;;;;;5086166;28;20407;-68
2021/04/03 02:59:37;;;;;;;3.83;1.20;;;17.20;56.20;;;;;;5093166;28;20016;-68
2021/04/03 03:02:04;;;;;;;5.38;1.20;;;17.10;55.80;;;;;;5092290;28;20012;-68
2021/04/03 03:04:29;;;;;;;5.07;1.30;;;17.10;55.80;;;;;;5093520;28;20099;-68
2021/04/03 03:06:57;;;;;;;4.82;1.27;;;17.10;55.90;;;;;;5092769;28;20066;-67
2021/04/03 03:09:23;;;;;;;5.13;1.38;;;17.10;55.80;;;;;;5092925;28;20039;-68
2021/04/03 03:11:53;;;;;;;3.53;1.20;;;17.10;55.90;;;;;;5093193;28;20094;-68
2021/04/03 03:14:19;;;;;;;8.10;1.25;;;17.10;55.80;;;;;;5093119;28;20020;-67
2021/04/03 03:16:47;;;;;;;4.82;1.20;;;17.10;55.90;;;;;;5089830;28;20048;-68
2021/04/03 03:19:14;;;;;;;5.82;1.08;;;17.10;55.90;;;;;;5090164;28;20457;-64
2021/04/03 03:21:40;;;;;;;3.60;1.08;;;17.10;56.00;;;;;;5092881;28;20110;-67
2021/04/03 03:24:07;;;;;;;5.50;1.20;;;17.10;56.00;;;;;;5089710;28;20024;-67
2021/04/03 03:26:34;;;;;;;5.38;1.17;;;17.10;55.90;;;;;;5092741;28;20049;-68
2021/04/03 03:29:03;;;;;;;4.78;1.23;;;17.00;55.90;;;;;;5092289;28;20416;-67
2021/04/03 03:31:29;;;;;;;5.22;1.42;;;17.00;55.90;;;;;;5092515;28;20023;-67
2021/04/03 03:33:54;;;;;;;4.88;1.35;;;17.00;55.90;;;;;;5077401;28;20047;-63
2021/04/03 03:36:21;;;;;;;4.82;1.38;;;17.00;56.00;;;;;;5072294;28;20021;-67
2021/04/03 03:38:48;;;;;;;4.75;1.20;;;17.00;56.00;;;;;;5071813;28;20032;-67
2021/04/03 03:41:15;;;;;;;5.72;1.20;;;17.00;55.90;;;;;;5072126;28;20016;-65
2021/04/03 03:43:41;;;;;;;3.80;1.10;;;17.00;55.90;;;;;;5087364;28;20334;-68
2021/04/03 03:46:06;;;;;;;4.88;1.73;;;17.00;56.00;;;;;;5092498;28;20028;-64
2021/04/03 03:48:33;;;;;;;3.92;1.17;;;17.00;56.00;;;;;;5092114;28;20415;-68
2021/04/03 03:50:59;;;;;;;5.72;1.67;;;17.00;56.00;;;;;;5085234;28;20474;-69
2021/04/03 03:53:25;;;;;;;5.38;1.50;;;17.00;56.00;;;;;;5071773;28;20494;-69
2021/04/03 03:55:50;;;;;;;4.22;1.17;;;17.00;56.00;;;;;;5071975;28;20103;-69
2021/04/03 03:58:16;;;;;;;4.28;1.48;;;17.00;56.30;;;;;;5070859;28;20404;-68
2021/04/03 04:00:41;;;;;;;4.38;1.27;;;17.00;56.00;;;;;;5087613;28;20530;-69
2021/04/03 04:03:07;;;;;;;6.68;1.40;;;17.00;56.10;;;;;;5079466;28;20473;-68
2021/04/03 04:05:33;;;;;;;4.80;1.38;;;17.00;56.10;;;;;;5087309;28;20024;-68
2021/04/03 04:08:01;;;;;;;5.07;1.48;;;16.90;56.10;;;;;;5091665;28;20027;-68
2021/04/03 04:10:27;;;;;;;6.03;1.20;;;17.00;56.10;;;;;;5089439;28;20023;-67
2021/04/03 04:12:53;;;;;;;4.05;1.10;;;17.00;56.00;;;;;;5084906;28;20323;-68
2021/04/03 04:15:18;;;;;;;4.22;1.20;;;16.90;56.00;;;;;;5070655;28;20021;-69
2021/04/03 04:17:44;;;;;;;3.05;1.30;;;16.90;56.10;;;;;;5070155;28;20021;-69
2021/04/03 04:20:10;;;;;;;4.95;1.23;;;16.90;56.10;;;;;;5083598;28;20070;-69
2021/04/03 04:22:35;;;;;;;4.05;1.23;;;16.90;56.10;;;;;;5080110;28;20032;-66
2021/04/03 04:25:01;;;;;;;5.88;1.27;;;16.90;56.00;;;;;;5071487;28;20024;-69
2021/04/03 04:27:26;;;;;;;7.40;1.10;;;16.90;56.00;;;;;;5072384;28;20016;-68
2021/04/03 04:29:53;;;;;;;5.10;1.40;;;16.90;56.00;;;;;;5069973;28;20028;-67
2021/04/03 04:32:19;;;;;;;4.35;1.10;;;16.90;56.00;;;;;;5075260;28;20103;-68
2021/04/03 04:34:44;;;;;;;5.55;1.50;;;16.90;56.00;;;;;;5071435;28;20538;-68
2021/04/03 04:37:10;;;;;;;4.88;1.45;;;16.90;56.10;;;;;;5073155;28;20112;-64
2021/04/03 04:39:35;;;;;;;4.38;1.20;;;16.90;56.10;;;;;;5071323;28;20031;-69
2021/04/03 04:42:04;;;;;;;4.60;1.25;;;16.80;56.00;;;;;;5079531;28;20020;-68
2021/04/03 04:44:29;;;;;;;3.38;1.20;;;16.80;56.00;;;;;;5090066;28;20025;-69
2021/04/03 04:46:55;;;;;;;5.00;1.35;;;16.80;56.00;;;;;;5090600;28;20117;-65
2021/04/03 04:49:20;;;;;;;3.70;1.13;;;16.80;56.10;;;;;;5090144;28;20054;-68
2021/04/03 04:51:46;;;;;;;5.82;1.50;;;16.80;56.10;;;;;;5071216;28;20025;-64
2021/04/03 04:54:11;;;;;;;4.82;1.73;;;16.80;56.10;;;;;;5070249;28;20056;-67
2021/04/03 04:56:37;;;;;;;4.45;1.38;;;16.80;56.00;;;;;;5090253;28;20016;-68
2021/04/03 04:59:02;;;;;;;5.40;1.58;;;16.80;56.00;;;;;;5079545;28;20037;-69
2021/04/03 05:01:28;;;;;;;6.72;1.40;;;16.80;56.00;;;;;;5082693;28;20020;-68
2021/04/03 05:03:53;;;;;;;6.75;1.60;;;16.80;56.00;;;;;;5082672;28;20430;-69
2021/04/03 05:06:19;;;;;;;5.85;1.38;;;16.80;56.00;;;;;;5073100;28;20024;-69
2021/04/03 05:08:44;;;;;;;4.88;1.40;;;16.80;56.00;;;;;;5080594;28;20028;-64
2021/04/03 05:11:10;;;;;;;4.45;1.63;;;16.80;55.90;;;;;;5076866;28;20032;-67
2021/04/03 05:13:35;;;;;;;3.75;1.20;;;16.80;55.90;;;;;;5083800;28;20036;-69
2021/04/03 05:16:01;;;;;;;4.72;1.23;;;16.90;55.90;;;;;;5082063;28;20374;-69
2021/04/03 05:18:27;;;;;;;6.47;1.30;;;16.80;55.90;;;;;;5077178;28;20024;-68
2021/04/03 05:20:52;;;;;;;5.88;1.45;;;16.80;56.00;;;;;;5080039;28;20037;-68
2021/04/03 05:23:21;;;;;;;4.78;1.40;;;16.80;56.00;;;;;;5076980;28;20098;-69
2021/04/03 05:25:47;;;;;;;5.60;1.40;;;16.80;55.90;;;;;;5083945;28;20020;-69
2021/04/03 05:28:16;;;;;;;5.53;1.65;;;16.80;55.90;;;;;;5095111;28;20020;-68
2021/04/03 05:30:42;;;;;;;4.80;1.40;;;16.80;55.90;;;;;;5093885;28;20031;-68
2021/04/03 05:33:08;;;;;;;4.93;1.33;;;16.80;56.00;;;;;;5092192;28;20423;-68
2021/04/03 05:35:34;;;;;;;5.30;1.40;;;16.70;55.80;;;;;;5093487;28;20062;-68
2021/04/03 05:37:59;;;;;;;7.57;1.67;;;16.80;55.90;;;;;;5094205;28;20453;-69
2021/04/03 05:40:25;;;;;;;5.63;1.40;;;16.80;55.80;;;;;;5077463;28;20025;-64
2021/04/03 05:42:52;;;;;;;4.57;1.35;;;16.80;55.90;;;;;;5074664;28;20033;-67
2021/04/03 05:45:19;;;;;;;5.28;1.60;;;16.80;55.80;;;;;;5085661;28;20107;-68
2021/04/03 05:47:45;;;;;;;6.65;1.50;;;16.80;55.80;;;;;;5084580;28;20039;-68
2021/04/03 05:50:12;;;;;;;5.70;1.67;;;16.80;55.70;;;;;;5091388;28;20032;-69
2021/04/03 05:52:40;;;;;;;5.65;1.45;;;16.90;55.90;;;;;;5086123;28;20039;-68
2021/04/03 05:55:06;;;;;;;4.45;1.40;;;16.80;55.80;;;;;;5115338;28;20023;-68
2021/04/03 05:57:31;;;;;;;5.05;1.50;;;16.80;55.70;;;;;;5115382;28;20488;-68
2021/04/03 05:59:57;;;;;;;7.55;1.50;;;16.80;55.70;;;;;;5113634;28;20031;-68
2021/04/03 06:02:23;;;;;;;6.10;1.75;;;16.80;55.70;;;;;;5114815;28;20081;-68
2021/04/03 06:04:52;;;;;;;6.80;1.60;;;16.80;55.60;;;;;;5110782;28;20020;-67
2021/04/03 06:07:18;;;;;;;5.47;1.25;;;16.80;55.70;;;;;;5094848;28;20027;-68
2021/04/03 06:09:44;;;;;;;5.50;1.58;;;16.80;55.50;;;;;;5089727;28;20029;-68
2021/04/03 06:12:10;;;;;;;8.52;2.03;;;16.90;55.90;;;;;;5085589;28;20070;-68
2021/04/03 06:14:36;;;;;;;7.13;2.05;;;16.90;56.60;;;;;;5079458;28;20087;-69
2021/04/03 06:17:02;;;;;;;12.68;1.80;;;17.00;56.70;;;;;;5086662;28;20467;-70
2021/04/03 06:19:28;;;;;;;9.52;1.80;;;17.10;57.00;;;;;;5090840;28;20389;-70
2021/04/03 06:21:54;;;;;;;7.97;1.92;;;17.10;56.50;;;;;;5076407;28;20020;-70
2021/04/03 06:24:28;;;;;;;11.77;2.65;;;17.10;56.40;;;;;;5074529;28;20086;-69
2021/04/03 06:27:11;;;;;;;9.80;1.92;;;17.00;56.30;;;;;;5083530;28;20032;-69
2021/04/03 06:29:43;;;;;;;6.40;1.88;;;17.10;56.50;;;;;;5086014;28;20028;-68
2021/04/03 06:32:23;;;;;;;7.38;2.00;;;17.10;56.10;;;;;;5081636;28;20027;-70
2021/04/03 06:34:51;;;;;;;9.70;1.55;;;17.00;56.00;;;;;;5081778;28;20024;-68
2021/04/03 06:37:26;;;;;;;8.43;1.80;;;17.00;56.20;;;;;;5084241;28;20020;-70
2021/04/03 06:40:00;;;;;;;5.43;1.63;;;17.00;56.00;;;;;;5079127;28;20016;-69
2021/04/03 06:42:55;;;;;;;11.30;2.20;;;17.10;56.20;;;;;;5079663;28;20020;-68
2021/04/03 06:45:35;;;;;;;7.80;2.00;;;17.10;56.10;;;;;;5084260;28;20043;-69
2021/04/03 06:48:03;;;;;;;7.15;2.00;;;17.10;55.50;;;;;;5083700;28;20485;-65
2021/04/03 06:50:47;;;;;;;10.20;2.53;;;17.10;55.50;;;;;;5083181;28;20028;-68
2021/04/03 06:53:17;;;;;;;8.23;1.90;;;17.00;55.40;;;;;;5081168;28;20093;-68
2021/04/03 06:55:45;;;;;;;8.13;2.03;;;17.00;55.40;;;;;;5082092;28;20020;-67
2021/04/03 06:58:12;;;;;;;18.65;2.03;;;17.00;55.30;;;;;;5083589;28;20087;-67
2021/04/03 07:00:38;;;;;;;8.45;2.38;;;17.00;55.20;;;;;;5087276;28;20016;-69
2021/04/03 07:03:25;;;;;;;7.43;1.85;;;17.00;55.10;;;;;;5081698;28;20024;-68
2021/04/03 07:05:52;;;;;;;7.50;2.10;;;17.00;55.00;;;;;;5083382;28;20020;-68
2021/04/03 07:08:17;;;;;;;7.43;1.98;;;17.00;54.90;;;;;;5081470;28;20416;-68
2021/04/03 07:10:43;;;;;;;7.72;2.13;;;17.00;54.90;;;;;;5081714;28;20073;-68
2021/04/03 07:13:13;;;;;;;8.13;2.22;;;17.00;54.80;;;;;;5083196;28;20378;-68
2021/04/03 07:15:39;;;;;;;5.68;1.80;;;17.00;54.70;;;;;;5082236;28;20157;-68
2021/04/03 07:18:09;;;;;;;6.55;1.80;;;17.00;54.60;;;;;;5082378;28;20100;-68
2021/04/03 07:20:35;;;;;;;7.57;2.30;;;17.00;54.60;;;;;;5081190;28;20029;-69
2021/04/03 07:23:13;;;;;;;6.28;1.90;;;17.00;54.60;;;;;;5081200;28;20028;-69
2021/04/03 07:25:41;;;;;;;9.35;2.20;;;17.10;54.70;;;;;;5083544;28;20020;-69
2021/04/03 07:28:07;;;;;;;12.43;2.42;;;17.10;55.00;;;;;;5079577;28;20139;-68
2021/04/03 07:30:36;;;;;;;16.50;2.95;;;17.10;56.10;;;;;;5076888;28;20024;-68
2021/04/03 07:33:11;;;;;;;16.77;2.95;;;17.00;56.10;;;;;;5071747;28;20029;-69
2021/04/03 07:35:48;;;;;;;153.18;64.13;;;17.10;56.70;;;;;;5085695;28;20016;-68
2021/04/03 07:38:23;;;;;;;355.20;165.18;;;17.10;57.00;;;;;;5086472;28;20111;-73
2021/04/03 07:40:50;;;;;;;232.57;110.43;;;17.20;56.90;;;;;;5089021;28;20025;-70
2021/04/03 07:43:36;;;;;;;153.70;67.20;;;17.30;57.40;;;;;;5089421;28;20020;-70
2021/04/03 07:46:25;;;;;;;101.80;48.25;;;17.40;57.50;;;;;;5089766;28;20028;-73
2021/04/03 15:03:46;;;;;;;66.50;20.33;;;18.80;49.00;;;;;;5108946;27;20384;-72
2021/04/03 15:08:57;;;;;;;55.47;17.65;;;18.60;50.30;;;;;;5066466;28;20053;-69
2021/04/03 15:11:23;;;;;;;54.70;16.52;;;18.60;49.70;;;;;;5050212;28;20025;-68
2021/04/03 15:13:48;;;;;;;47.95;15.55;;;18.60;50.00;;;;;;5049860;28;20498;-70
2021/04/03 15:16:14;;;;;;;49.58;14.45;;;18.60;50.00;;;;;;5050318;28;20025;-68
2021/04/03 15:18:40;;;;;;;48.38;15.15;;;18.60;50.10;;;;;;5049903;28;20021;-69
2021/04/03 15:21:06;;;;;;;43.15;13.43;;;18.50;50.20;;;;;;5068294;28;20028;-69
2021/04/03 15:23:31;;;;;;;55.42;16.02;;;18.50;49.70;;;;;;5067881;28;20091;-69
2021/04/03 15:25:57;;;;;;;39.50;13.20;;;18.50;50.00;;;;;;5068310;28;20029;-69
2021/04/03 15:28:23;;;;;;;44.95;13.65;;;18.50;50.00;;;;;;5049818;28;20464;-68
2021/04/03 15:30:48;;;;;;;43.95;12.07;;;18.50;50.20;;;;;;5068008;28;20079;-68
2021/04/03 15:33:14;;;;;;;42.80;11.98;;;18.50;49.70;;;;;;5066446;28;20563;-70
2021/04/03 15:35:39;;;;;;;37.42;10.35;;;18.50;49.90;;;;;;5067712;28;20104;-69
2021/04/03 15:38:05;;;;;;;38.40;11.30;;;18.50;49.50;;;;;;5049819;28;20025;-70
2021/04/03 15:40:30;;;;;;;41.03;11.20;;;18.50;49.60;;;;;;5067843;28;20202;-69
2021/04/03 15:42:56;;;;;;;37.22;10.60;;;18.50;49.70;;;;;;5067441;28;20524;-70
2021/04/03 15:45:21;;;;;;;36.85;10.60;;;18.50;49.80;;;;;;5049923;28;20025;-70
2021/04/03 15:47:47;;;;;;;42.65;10.82;;;18.50;49.50;;;;;;5049670;28;20024;-70
2021/04/03 15:50:13;;;;;;;39.35;10.10;;;18.50;49.50;;;;;;5067438;28;20123;-70
2021/04/03 15:52:38;;;;;;;34.15;10.25;;;18.50;49.60;;;;;;5067055;28;20116;-70
2021/04/03 15:55:05;;;;;;;41.40;9.98;;;18.50;49.70;;;;;;5056542;28;20021;-69
2021/04/03 15:57:30;;;;;;;33.45;9.32;;;18.50;49.50;;;;;;5047214;28;20028;-70
2021/04/03 15:59:56;;;;;;;33.60;9.15;;;18.50;49.40;;;;;;5047410;28;20021;-69
2021/04/03 16:02:21;;;;;;;32.55;9.07;;;18.50;49.50;;;;;;5046900;28;20553;-69
2021/04/03 16:04:47;;;;;;;29.65;8.55;;;18.50;49.80;;;;;;5015775;28;20043;-70
2021/04/03 16:07:12;;;;;;;31.52;7.75;;;18.40;49.30;;;;;;5033866;28;20064;-70
2021/04/03 16:09:38;;;;;;;25.20;8.10;;;18.40;49.50;;;;;;5033982;28;20061;-70
2021/04/03 16:12:04;;;;;;;33.25;9.38;;;18.40;49.40;;;;;;5016169;28;20026;-69
2021/04/03 16:14:30;;;;;;;27.77;7.15;;;18.40;49.60;;;;;;5015996;28;20116;-69
2021/04/03 16:16:56;;;;;;;23.92;6.68;;;18.40;49.80;;;;;;5033839;28;20053;-69
2021/04/03 16:19:21;;;;;;;25.52;8.02;;;18.30;49.80;;;;;;5033906;28;20025;-69
2021/04/03 16:21:47;;;;;;;26.50;7.18;;;18.40;49.70;;;;;;5033916;28;20025;-69
2021/04/03 16:24:12;;;;;;;26.10;7.57;;;18.40;49.60;;;;;;5015635;28;20029;-70
2021/04/03 16:26:40;;;;;;;20.48;6.15;;;18.30;49.50;;;;;;5015891;28;20029;-67
2021/04/03 16:29:06;;;;;;;19.70;5.97;;;18.30;49.50;;;;;;5015932;28;20491;-71
2021/04/03 16:31:31;;;;;;;19.20;6.50;;;18.30;49.90;;;;;;5033616;28;20071;-68
2021/04/03 16:33:57;;;;;;;23.95;6.63;;;18.20;49.60;;;;;;5015484;28;20018;-71
2021/04/03 16:36:22;;;;;;;35.67;7.57;;;18.20;49.70;;;;;;5033342;28;20025;-68
2021/04/03 16:38:48;;;;;;;30.17;7.43;;;18.20;49.50;;;;;;5033484;28;20683;-71
2021/04/03 16:41:13;;;;;;;34.50;6.32;;;18.20;49.70;;;;;;5033542;28;20025;-70
2021/04/03 16:43:39;;;;;;;28.65;5.65;;;18.30;50.30;;;;;;5033152;28;20042;-69
2021/04/03 16:46:04;;;;;;;29.80;7.45;;;18.30;49.60;;;;;;5033420;28;20064;-68
2021/04/03 16:48:30;;;;;;;26.15;7.13;;;18.40;49.70;;;;;;5015591;28;20021;-69
2021/04/03 16:50:55;;;;;;;27.45;5.72;;;18.30;50.00;;;;;;5033331;28;20025;-69
2021/04/03 16:53:21;;;;;;;24.35;6.00;;;18.20;49.70;;;;;;5014696;28;20029;-70
2021/04/03 16:55:46;;;;;;;20.35;5.22;;;18.30;49.80;;;;;;5033256;28;20068;-69
2021/04/03 16:58:12;;;;;;;24.95;4.63;;;18.20;50.20;;;;;;5015157;28;20031;-68
2021/04/03 17:00:37;;;;;;;23.35;4.90;;;18.20;49.00;;;;;;5014752;28;20075;-69
2021/04/03 17:03:03;;;;;;;18.13;4.72;;;18.20;49.30;;;;;;5026967;28;20035;-69
2021/04/03 17:05:29;;;;;;;17.98;4.50;;;18.20;49.60;;;;;;5009687;28;20033;-70
2021/04/03 17:07:54;;;;;;;21.80;4.95;;;18.20;49.70;;;;;;5026395;28;20052;-71
2021/04/03 17:10:20;;;;;;;16.05;3.70;;;18.20;48.30;;;;;;5033449;28;20032;-70
2021/04/03 17:12:45;;;;;;;14.43;2.97;;;17.80;44.10;;;;;;5039431;28;20429;-70
2021/04/03 17:15:12;;;;;;;8.45;2.45;;;17.50;42.90;;;;;;5034111;28;20025;-69
2021/04/03 17:17:37;;;;;;;17.17;3.78;;;17.30;43.10;;;;;;5027078;28;20454;-69
2021/04/03 17:20:04;;;;;;;20.63;3.40;;;17.40;44.80;;;;;;5044037;28;20016;-70
2021/04/03 17:22:30;;;;;;;66.18;23.67;;;17.60;45.50;;;;;;5051279;28;20029;-70
2021/04/03 17:24:55;;;;;;;1278.50;397.67;;;17.80;46.00;;;;;;5052728;28;20070;-71
2021/04/03 17:27:21;;;;;;;539.05;143.43;;;17.80;47.20;;;;;;5041572;28;20115;-70
2021/04/03 17:29:46;;;;;;;384.00;94.43;;;17.90;47.00;;;;;;5037835;28;20100;-70
2021/04/03 17:32:12;;;;;;;479.13;114.50;;;17.90;47.60;;;;;;5023385;28;20029;-70
2021/04/03 17:34:38;;;;;;;346.95;84.45;;;17.90;48.90;;;;;;5033574;28;20025;-69
2021/04/03 17:37:06;;;;;;;298.02;70.57;;;17.90;49.60;;;;;;5032254;28;20025;-72
2021/04/03 17:39:32;;;;;;;293.02;67.32;;;17.80;49.10;;;;;;5042195;28;20016;-71
2021/04/03 17:41:57;;;;;;;241.35;59.95;;;17.80;49.60;;;;;;5067037;28;20028;-71
2021/04/03 17:44:23;;;;;;;228.68;55.80;;;17.80;50.30;;;;;;5047561;28;20033;-71
2021/04/03 17:46:48;;;;;;;221.73;51.28;;;17.80;50.20;;;;;;5029627;28;20474;-71
2021/04/03 17:49:14;;;;;;;188.90;47.22;;;17.70;50.40;;;;;;5041754;28;20083;-70
2021/04/03 17:51:39;;;;;;;177.52;46.80;;;17.70;50.50;;;;;;5021092;28;20049;-71
2021/04/03 17:54:05;;;;;;;142.60;38.20;;;17.70;50.70;;;;;;5042176;28;20092;-71
2021/04/03 17:56:30;;;;;;;134.13;35.35;;;17.70;51.40;;;;;;5049995;28;20230;-69
2021/04/03 17:58:56;;;;;;;148.70;41.90;;;17.70;51.80;;;;;;5046979;28;20021;-70
2021/04/03 18:01:22;;;;;;;151.15;45.42;;;17.70;51.50;;;;;;5038565;28;20388;-69
2021/04/03 18:03:48;;;;;;;126.47;35.95;;;17.70;51.80;;;;;;5046097;28;20036;-70
2021/04/03 18:06:13;;;;;;;113.32;31.48;;;17.80;52.10;;;;;;5059165;28;20021;-72
2021/04/03 18:08:39;;;;;;;86.18;28.10;;;17.90;51.30;;;;;;5051511;28;20032;-70
2021/04/03 18:11:05;;;;;;;88.63;26.73;;;18.10;51.20;;;;;;5050710;28;20016;-70
2021/04/03 18:13:31;;;;;;;88.85;25.90;;;18.20;51.50;;;;;;5032138;28;20507;-69
2021/04/03 18:15:57;;;;;;;82.30;24.63;;;18.30;51.40;;;;;;5049956;28;20048;-69
2021/04/03 18:18:22;;;;;;;70.43;21.52;;;18.50;50.70;;;;;;5032498;28;20060;-69
2021/04/03 18:20:49;;;;;;;64.68;20.20;;;18.60;50.40;;;;;;5059558;28;20379;-70
2021/04/03 18:23:16;;;;;;;63.00;20.10;;;18.60;50.20;;;;;;5069289;28;20028;-70
2021/04/03 18:25:41;;;;;;;69.32;19.90;;;18.70;50.20;;;;;;5044322;28;20408;-70
2021/04/03 18:28:07;;;;;;;62.75;20.38;;;18.80;50.10;;;;;;5049323;28;20036;-71
2021/04/03 18:30:34;;;;;;;70.65;29.70;;;18.80;50.40;;;;;;5039324;28;20711;-71
2021/04/03 18:33:01;;;;;;;68.38;30.20;;;18.80;50.50;;;;;;5042314;28;20036;-71
2021/04/03 18:35:27;;;;;;;75.32;33.90;;;18.80;50.40;;;;;;5042559;28;20107;-72
2021/04/03 18:37:53;;;;;;;62.83;27.55;;;18.80;50.70;;;;;;5061866;28;20486;-71
2021/04/03 18:40:24;;;;;;;53.35;23.70;;;18.80;50.90;;;;;;5050671;28;20029;-72
2021/04/03 18:42:54;;;;;;;54.97;23.27;;;18.80;50.80;;;;;;5019557;28;20061;-71
2021/04/03 18:45:21;;;;;;;73.30;41.47;;;18.70;51.00;;;;;;5051020;28;20033;-71
2021/04/03 18:47:47;;;;;;;61.05;29.77;;;18.70;51.10;;;;;;5040804;28;20059;-70
2021/04/03 18:50:18;;;;;;;60.38;30.80;;;18.70;51.10;;;;;;5059319;28;20056;-70
2021/04/03 18:52:44;;;;;;;57.15;26.55;;;18.70;51.30;;;;;;5051544;28;20037;-72
2021/04/03 18:55:12;;;;;;;52.05;25.63;;;18.70;51.40;;;;;;5018555;28;20500;-73
2021/04/03 18:57:37;;;;;;;52.80;25.45;;;18.60;51.70;;;;;;5052668;28;20025;-70
2021/04/03 19:00:05;;;;;;;48.45;22.10;;;18.60;51.80;;;;;;5015520;28;20088;-72
2021/04/03 19:02:32;;;;;;;45.97;21.73;;;18.50;51.70;;;;;;5014687;28;20033;-71
2021/04/03 19:04:57;;;;;;;45.88;20.83;;;18.50;52.00;;;;;;5035419;28;20029;-72
2021/04/03 19:07:23;;;;;;;42.70;19.88;;;18.40;52.00;;;;;;5047357;28;20200;-70
2021/04/03 19:09:48;;;;;;;37.40;18.67;;;18.50;52.30;;;;;;5048666;28;20025;-71
2021/04/03 19:12:15;;;;;;;43.67;18.48;;;18.40;52.70;;;;;;5038353;28;20026;-72
2021/04/03 19:14:41;;;;;;;42.10;17.70;;;18.40;52.40;;;;;;5040489;28;20025;-72
2021/04/03 19:17:06;;;;;;;39.47;18.08;;;18.40;52.60;;;;;;5049747;28;20009;-71
2021/04/03 19:19:32;;;;;;;38.58;15.85;;;18.40;52.70;;;;;;5049008;28;20067;-73
2021/04/03 19:21:57;;;;;;;32.92;15.27;;;18.30;52.60;;;;;;5062417;28;20025;-70
2021/04/03 19:24:23;;;;;;;35.75;16.38;;;18.30;52.70;;;;;;5070614;28;20039;-71
2021/04/03 19:26:48;;;;;;;66.22;34.35;;;18.30;52.90;;;;;;5052105;28;20479;-71
2021/04/03 19:29:14;;;;;;;581.75;422.63;;;18.30;53.00;;;;;;5029039;28;20032;-71
2021/04/03 19:31:40;;;;;;;556.38;413.27;;;18.30;53.00;;;;;;5013497;28;20352;-71
2021/04/03 19:34:06;;;;;;;382.02;262.08;;;18.30;52.80;;;;;;5022962;28;20025;-73
2021/04/03 19:36:32;;;;;;;234.88;155.10;;;18.30;52.90;;;;;;5050471;28;20021;-71
2021/04/03 19:38:57;;;;;;;170.50;113.57;;;18.30;52.90;;;;;;5052745;28;20399;-72
2021/04/03 19:41:23;;;;;;;153.40;98.13;;;18.30;52.90;;;;;;5037170;28;20718;-71
2021/04/03 19:43:48;;;;;;;134.88;90.03;;;18.30;53.10;;;;;;5036477;28;20029;-71
2021/04/03 19:46:14;;;;;;;124.32;80.78;;;18.20;53.00;;;;;;5026441;28;20495;-73
2021/04/03 19:48:39;;;;;;;111.35;71.82;;;18.20;53.00;;;;;;5022506;28;20025;-72
2021/04/03 19:51:05;;;;;;;105.80;67.05;;;18.20;53.10;;;;;;5045439;28;20391;-73
2021/04/03 19:53:30;;;;;;;99.03;62.63;;;18.20;53.10;;;;;;5054878;28;20021;-72
2021/04/03 19:55:57;;;;;;;92.03;57.42;;;18.20;53.20;;;;;;5054376;28;20025;-72
2021/04/03 19:58:22;;;;;;;81.15;54.45;;;18.20;53.30;;;;;;5053543;28;20135;-71